sensor_id;sensor_type;location;lat;lon;timestamp;pressure;altitude;pressure_sealevel;temperature;humidity
77366;BME280;66430;50.182;11.704;2024-02-21T00:00:33;95340.02;;;8.65;38.50
77366;BME280;66430;50.182;11.704;2024-02-21T00:02:59;95337.56;;;8.78;38.38
77366;BME280;66430;50.182;11.704;2024-02-21T00:05:29;95336.27;;;8.88;38.79
77366;BME280;66430;50.182;11.704;2024-02-21T00:07:49;95338.94;;;8.65;39.51
77366;BME280;66430;50.182;11.704;2024-02-21T00:10:14;95339.77;;;8.79;39.20
77366;BME280;66430;50.182;11.704;2024-02-21T00:12:39;95337.45;;;8.65;39.40
77366;BME280;66430;50.182;11.704;2024-02-21T00:15:09;95334.52;;;8.87;39.21
77366;BME280;66430;50.182;11.704;2024-02-21T00:17:30;95330.93;;;8.73;39.06
77366;BME280;66430;50.182;11.704;2024-02-21T00:19:56;95331.19;;;8.60;39.16
77366;BME280;66430;50.182;11.704;2024-02-21T00:22:22;95325.18;;;8.49;39.06
77366;BME280;66430;50.182;11.704;2024-02-21T00:24:47;95326.69;;;8.64;39.69
77366;BME280;66430;50.182;11.704;2024-02-21T00:27:12;95316.97;;;8.68;39.40
77366;BME280;66430;50.182;11.704;2024-02-21T00:29:38;95316.11;;;8.28;39.80
77366;BME280;66430;50.182;11.704;2024-02-21T00:32:03;95313.38;;;8.30;39.72
77366;BME280;66430;50.182;11.704;2024-02-21T00:34:28;95311.26;;;8.44;39.66
77366;BME280;66430;50.182;11.704;2024-02-21T00:36:56;95308.32;;;8.36;39.46
77366;BME280;66430;50.182;11.704;2024-02-21T00:39:19;95297.29;;;8.70;39.73
77366;BME280;66430;50.182;11.704;2024-02-21T00:41:46;95297.84;;;7.93;40.29
77366;BME280;66430;50.182;11.704;2024-02-21T00:44:11;95296.58;;;8.30;40.55
77366;BME280;66430;50.182;11.704;2024-02-21T00:46:36;95291.22;;;8.35;39.94
77366;BME280;66430;50.182;11.704;2024-02-21T00:49:02;95286.27;;;8.62;39.74
77366;BME280;66430;50.182;11.704;2024-02-21T00:51:27;95288.18;;;8.55;39.89
77366;BME280;66430;50.182;11.704;2024-02-21T00:53:53;95288.16;;;8.66;39.84
77366;BME280;66430;50.182;11.704;2024-02-21T00:56:18;95285.85;;;8.60;39.66
77366;BME280;66430;50.182;11.704;2024-02-21T00:58:44;95280.83;;;8.68;39.88
77366;BME280;66430;50.182;11.704;2024-02-21T01:01:10;95282.03;;;8.68;39.54
77366;BME280;66430;50.182;11.704;2024-02-21T01:03:35;95280.39;;;8.29;39.84
77366;BME280;66430;50.182;11.704;2024-02-21T01:06:05;95281.15;;;8.47;39.47
77366;BME280;66430;50.182;11.704;2024-02-21T01:08:27;95279.20;;;8.18;40.07
77366;BME280;66430;50.182;11.704;2024-02-21T01:10:52;95274.80;;;8.65;39.67
77366;BME280;66430;50.182;11.704;2024-02-21T01:13:23;95272.29;;;8.25;40.41
77366;BME280;66430;50.182;11.704;2024-02-21T01:15:42;95269.85;;;8.02;40.42
77366;BME280;66430;50.182;11.704;2024-02-21T01:18:07;95273.09;;;8.37;40.12
77366;BME280;66430;50.182;11.704;2024-02-21T01:20:33;95274.91;;;8.81;39.48
77366;BME280;66430;50.182;11.704;2024-02-21T01:22:58;95271.48;;;8.23;40.16
77366;BME280;66430;50.182;11.704;2024-02-21T01:25:24;95265.74;;;8.78;39.51
77366;BME280;66430;50.182;11.704;2024-02-21T01:27:49;95266.01;;;8.72;39.43
77366;BME280;66430;50.182;11.704;2024-02-21T01:30:17;95271.31;;;9.00;39.38
77366;BME280;66430;50.182;11.704;2024-02-21T01:32:40;95269.87;;;8.63;39.53
77366;BME280;66430;50.182;11.704;2024-02-21T01:35:05;95265.73;;;8.82;39.76
77366;BME280;66430;50.182;11.704;2024-02-21T01:37:31;95264.10;;;8.60;39.65
77366;BME280;66430;50.182;11.704;2024-02-21T01:39:56;95260.92;;;8.88;39.32
77366;BME280;66430;50.182;11.704;2024-02-21T01:42:21;95256.24;;;8.61;39.67
77366;BME280;66430;50.182;11.704;2024-02-21T01:44:47;95254.53;;;8.67;39.39
77366;BME280;66430;50.182;11.704;2024-02-21T01:47:14;95254.82;;;8.59;39.68
77366;BME280;66430;50.182;11.704;2024-02-21T01:49:38;95252.25;;;8.47;39.75
77366;BME280;66430;50.182;11.704;2024-02-21T01:52:04;95248.54;;;8.38;39.85
77366;BME280;66430;50.182;11.704;2024-02-21T01:54:30;95245.18;;;8.67;39.91
77366;BME280;66430;50.182;11.704;2024-02-21T01:56:54;95236.55;;;8.63;39.45
77366;BME280;66430;50.182;11.704;2024-02-21T01:59:22;95231.21;;;8.49;40.29
77366;BME280;66430;50.182;11.704;2024-02-21T02:01:46;95226.66;;;8.39;40.68
77366;BME280;66430;50.182;11.704;2024-02-21T02:04:10;95227.89;;;8.59;40.27
77366;BME280;66430;50.182;11.704;2024-02-21T02:06:36;95227.93;;;8.68;40.20
77366;BME280;66430;50.182;11.704;2024-02-21T02:09:01;95227.70;;;8.41;39.90
77366;BME280;66430;50.182;11.704;2024-02-21T02:11:32;95222.56;;;8.20;40.24
77366;BME280;66430;50.182;11.704;2024-02-21T02:13:53;95222.96;;;8.82;39.64
77366;BME280;66430;50.182;11.704;2024-02-21T02:16:19;95225.06;;;8.67;39.90
77366;BME280;66430;50.182;11.704;2024-02-21T02:18:44;95226.22;;;8.51;40.14
77366;BME280;66430;50.182;11.704;2024-02-21T02:21:13;95226.01;;;8.62;40.32
77366;BME280;66430;50.182;11.704;2024-02-21T02:23:35;95225.91;;;8.63;40.34
77366;BME280;66430;50.182;11.704;2024-02-21T02:26:01;95228.31;;;8.33;40.87
77366;BME280;66430;50.182;11.704;2024-02-21T02:28:26;95228.82;;;8.39;40.38
77366;BME280;66430;50.182;11.704;2024-02-21T02:30:52;95224.30;;;8.50;40.06
77366;BME280;66430;50.182;11.704;2024-02-21T02:33:18;95223.16;;;8.46;40.17
77366;BME280;66430;50.182;11.704;2024-02-21T02:35:43;95221.04;;;8.49;40.70
77366;BME280;66430;50.182;11.704;2024-02-21T02:38:07;95215.97;;;8.50;40.68
77366;BME280;66430;50.182;11.704;2024-02-21T02:40:34;95209.19;;;8.88;39.99
77366;BME280;66430;50.182;11.704;2024-02-21T02:42:58;95206.11;;;8.57;40.16
77366;BME280;66430;50.182;11.704;2024-02-21T02:45:25;95205.44;;;8.46;40.15
77366;BME280;66430;50.182;11.704;2024-02-21T02:47:49;95201.56;;;8.32;40.31
77366;BME280;66430;50.182;11.704;2024-02-21T02:50:15;95201.62;;;8.84;39.94
77366;BME280;66430;50.182;11.704;2024-02-21T02:52:40;95198.76;;;8.74;39.84
77366;BME280;66430;50.182;11.704;2024-02-21T02:55:07;95194.00;;;8.47;39.57
77366;BME280;66430;50.182;11.704;2024-02-21T02:57:31;95192.23;;;8.72;40.31
77366;BME280;66430;50.182;11.704;2024-02-21T02:59:57;95182.80;;;7.96;40.61
77366;BME280;66430;50.182;11.704;2024-02-21T03:02:22;95179.29;;;8.07;40.80
77366;BME280;66430;50.182;11.704;2024-02-21T03:04:48;95174.86;;;8.34;40.34
77366;BME280;66430;50.182;11.704;2024-02-21T03:07:14;95171.18;;;8.56;40.57
77366;BME280;66430;50.182;11.704;2024-02-21T03:09:38;95160.40;;;8.52;39.74
77366;BME280;66430;50.182;11.704;2024-02-21T03:12:05;95163.03;;;8.79;40.23
77366;BME280;66430;50.182;11.704;2024-02-21T03:14:29;95170.90;;;8.24;40.36
77366;BME280;66430;50.182;11.704;2024-02-21T03:16:55;95177.70;;;8.69;40.25
77366;BME280;66430;50.182;11.704;2024-02-21T03:19:20;95185.27;;;8.38;41.05
77366;BME280;66430;50.182;11.704;2024-02-21T03:21:45;95183.67;;;8.58;40.34
77366;BME280;66430;50.182;11.704;2024-02-21T03:24:11;95181.62;;;8.77;40.23
77366;BME280;66430;50.182;11.704;2024-02-21T03:26:41;95182.13;;;8.79;40.13
77366;BME280;66430;50.182;11.704;2024-02-21T03:29:02;95179.99;;;8.73;40.27
77366;BME280;66430;50.182;11.704;2024-02-21T03:31:27;95162.39;;;8.88;39.90
77366;BME280;66430;50.182;11.704;2024-02-21T03:33:53;95152.67;;;9.15;39.91
77366;BME280;66430;50.182;11.704;2024-02-21T03:36:19;95143.18;;;8.62;39.71
77366;BME280;66430;50.182;11.704;2024-02-21T03:38:43;95145.95;;;9.08;39.73
77366;BME280;66430;50.182;11.704;2024-02-21T03:41:09;95148.72;;;8.94;39.76
77366;BME280;66430;50.182;11.704;2024-02-21T03:43:37;95150.86;;;8.74;39.78
77366;BME280;66430;50.182;11.704;2024-02-21T03:46:00;95148.11;;;8.06;40.71
77366;BME280;66430;50.182;11.704;2024-02-21T03:48:26;95146.87;;;7.94;40.97
77366;BME280;66430;50.182;11.704;2024-02-21T03:50:52;95145.51;;;8.65;40.10
77366;BME280;66430;50.182;11.704;2024-02-21T03:53:17;95144.52;;;8.67;39.73
77366;BME280;66430;50.182;11.704;2024-02-21T03:55:42;95142.58;;;8.65;40.28
77366;BME280;66430;50.182;11.704;2024-02-21T03:58:08;95139.23;;;8.73;40.18
77366;BME280;66430;50.182;11.704;2024-02-21T04:00:33;95139.10;;;8.61;40.06
77366;BME280;66430;50.182;11.704;2024-02-21T04:02:59;95138.42;;;9.03;39.69
77366;BME280;66430;50.182;11.704;2024-02-21T04:05:24;95140.39;;;8.64;40.26
77366;BME280;66430;50.182;11.704;2024-02-21T04:07:50;95141.61;;;8.81;40.12
77366;BME280;66430;50.182;11.704;2024-02-21T04:10:16;95142.02;;;8.14;40.88
77366;BME280;66430;50.182;11.704;2024-02-21T04:12:41;95143.89;;;8.60;39.94
77366;BME280;66430;50.182;11.704;2024-02-21T04:15:07;95142.57;;;8.64;40.00
77366;BME280;66430;50.182;11.704;2024-02-21T04:17:32;95147.30;;;8.55;39.89
77366;BME280;66430;50.182;11.704;2024-02-21T04:20:03;95144.41;;;8.66;39.73
77366;BME280;66430;50.182;11.704;2024-02-21T04:22:23;95137.75;;;8.52;40.50
77366;BME280;66430;50.182;11.704;2024-02-21T04:24:48;95134.96;;;8.54;40.38
77366;BME280;66430;50.182;11.704;2024-02-21T04:27:14;95130.22;;;8.13;40.66
77366;BME280;66430;50.182;11.704;2024-02-21T04:29:39;95133.25;;;8.31;40.84
77366;BME280;66430;50.182;11.704;2024-02-21T04:32:06;95129.90;;;8.70;40.25
77366;BME280;66430;50.182;11.704;2024-02-21T04:34:30;95127.25;;;9.05;40.09
77366;BME280;66430;50.182;11.704;2024-02-21T04:36:55;95129.46;;;8.58;39.99
77366;BME280;66430;50.182;11.704;2024-02-21T04:39:21;95125.53;;;8.41;40.72
77366;BME280;66430;50.182;11.704;2024-02-21T04:41:46;95119.04;;;8.65;40.24
77366;BME280;66430;50.182;11.704;2024-02-21T04:44:12;95110.26;;;8.98;40.26
77366;BME280;66430;50.182;11.704;2024-02-21T04:46:37;95099.65;;;8.61;40.32
77366;BME280;66430;50.182;11.704;2024-02-21T04:49:02;95097.60;;;8.35;40.36
77366;BME280;66430;50.182;11.704;2024-02-21T04:51:28;95094.74;;;8.89;40.07
77366;BME280;66430;50.182;11.704;2024-02-21T04:53:53;95096.37;;;9.05;40.15
77366;BME280;66430;50.182;11.704;2024-02-21T04:56:18;95095.81;;;8.61;40.36
77366;BME280;66430;50.182;11.704;2024-02-21T04:58:44;95101.28;;;8.04;40.96
77366;BME280;66430;50.182;11.704;2024-02-21T05:01:09;95102.70;;;8.22;40.65
77366;BME280;66430;50.182;11.704;2024-02-21T05:03:35;95104.48;;;8.37;40.96
77366;BME280;66430;50.182;11.704;2024-02-21T05:06:02;95101.64;;;8.71;40.92
77366;BME280;66430;50.182;11.704;2024-02-21T05:08:27;95101.91;;;8.58;41.02
77366;BME280;66430;50.182;11.704;2024-02-21T05:10:52;95101.02;;;8.62;40.30
77366;BME280;66430;50.182;11.704;2024-02-21T05:13:17;95096.36;;;8.68;40.10
77366;BME280;66430;50.182;11.704;2024-02-21T05:15:43;95092.31;;;8.80;40.18
77366;BME280;66430;50.182;11.704;2024-02-21T05:18:08;95093.43;;;8.29;40.63
77366;BME280;66430;50.182;11.704;2024-02-21T05:20:33;95092.64;;;8.54;41.31
77366;BME280;66430;50.182;11.704;2024-02-21T05:22:59;95083.27;;;8.54;40.75
77366;BME280;66430;50.182;11.704;2024-02-21T05:25:25;95081.68;;;8.58;40.59
77366;BME280;66430;50.182;11.704;2024-02-21T05:27:52;95074.54;;;8.78;40.19
77366;BME280;66430;50.182;11.704;2024-02-21T05:30:16;95072.97;;;8.62;40.26
77366;BME280;66430;50.182;11.704;2024-02-21T05:32:41;95074.73;;;9.08;39.84
77366;BME280;66430;50.182;11.704;2024-02-21T05:35:07;95074.30;;;9.20;40.06
77366;BME280;66430;50.182;11.704;2024-02-21T05:37:32;95075.12;;;9.05;40.05
77366;BME280;66430;50.182;11.704;2024-02-21T05:39:57;95074.38;;;8.63;40.16
77366;BME280;66430;50.182;11.704;2024-02-21T05:42:23;95076.57;;;8.76;40.68
77366;BME280;66430;50.182;11.704;2024-02-21T05:44:48;95070.88;;;9.01;40.46
77366;BME280;66430;50.182;11.704;2024-02-21T05:47:14;95066.48;;;8.73;40.91
77366;BME280;66430;50.182;11.704;2024-02-21T05:49:40;95064.66;;;8.48;41.35
77366;BME280;66430;50.182;11.704;2024-02-21T05:52:09;95059.97;;;8.73;40.88
77366;BME280;66430;50.182;11.704;2024-02-21T05:54:31;95058.13;;;8.48;40.86
77366;BME280;66430;50.182;11.704;2024-02-21T05:56:57;95057.42;;;8.57;40.70
77366;BME280;66430;50.182;11.704;2024-02-21T05:59:22;95056.17;;;8.48;41.46
77366;BME280;66430;50.182;11.704;2024-02-21T06:01:56;95062.76;;;7.86;41.55
77366;BME280;66430;50.182;11.704;2024-02-21T06:04:14;95062.40;;;8.73;40.96
77366;BME280;66430;50.182;11.704;2024-02-21T06:06:39;95060.65;;;8.58;40.76
77366;BME280;66430;50.182;11.704;2024-02-21T06:09:06;95060.38;;;8.68;40.27
77366;BME280;66430;50.182;11.704;2024-02-21T06:11:34;95059.08;;;8.96;40.43
77366;BME280;66430;50.182;11.704;2024-02-21T06:13:57;95055.50;;;8.52;40.42
77366;BME280;66430;50.182;11.704;2024-02-21T06:16:21;95047.21;;;8.71;40.35
77366;BME280;66430;50.182;11.704;2024-02-21T06:18:46;95047.74;;;8.42;40.81
77366;BME280;66430;50.182;11.704;2024-02-21T06:21:17;95044.60;;;8.60;40.45
77366;BME280;66430;50.182;11.704;2024-02-21T06:23:37;95043.17;;;9.02;40.34
77366;BME280;66430;50.182;11.704;2024-02-21T06:26:03;95040.32;;;8.21;40.52
77366;BME280;66430;50.182;11.704;2024-02-21T06:28:28;95034.07;;;8.15;40.78
77366;BME280;66430;50.182;11.704;2024-02-21T06:30:54;95031.28;;;8.23;40.16
77366;BME280;66430;50.182;11.704;2024-02-21T06:33:19;95038.02;;;8.62;39.99
77366;BME280;66430;50.182;11.704;2024-02-21T06:35:45;95041.32;;;7.76;41.54
77366;BME280;66430;50.182;11.704;2024-02-21T06:38:10;95033.39;;;8.36;40.84
77366;BME280;66430;50.182;11.704;2024-02-21T06:40:35;95034.59;;;8.43;40.36
77366;BME280;66430;50.182;11.704;2024-02-21T06:43:01;95036.88;;;8.23;40.49
77366;BME280;66430;50.182;11.704;2024-02-21T06:45:26;95034.33;;;8.20;40.69
77366;BME280;66430;50.182;11.704;2024-02-21T06:47:52;95032.95;;;8.39;40.82
77366;BME280;66430;50.182;11.704;2024-02-21T06:50:17;95029.69;;;8.21;40.86
77366;BME280;66430;50.182;11.704;2024-02-21T06:52:43;95027.98;;;7.81;41.11
77366;BME280;66430;50.182;11.704;2024-02-21T06:55:08;95035.30;;;8.20;41.30
77366;BME280;66430;50.182;11.704;2024-02-21T06:57:34;95043.72;;;8.37;40.79
77366;BME280;66430;50.182;11.704;2024-02-21T07:00:00;95049.66;;;8.20;41.15
77366;BME280;66430;50.182;11.704;2024-02-21T07:02:25;95049.95;;;8.14;41.40
77366;BME280;66430;50.182;11.704;2024-02-21T07:04:51;95048.92;;;8.16;41.45
77366;BME280;66430;50.182;11.704;2024-02-21T07:07:17;95049.00;;;8.24;41.91
77366;BME280;66430;50.182;11.704;2024-02-21T07:09:42;95054.73;;;8.47;41.40
77366;BME280;66430;50.182;11.704;2024-02-21T07:12:08;95062.35;;;8.43;41.42
77366;BME280;66430;50.182;11.704;2024-02-21T07:14:35;95054.85;;;8.15;41.03
77366;BME280;66430;50.182;11.704;2024-02-21T07:16:58;95042.78;;;8.62;41.19
77366;BME280;66430;50.182;11.704;2024-02-21T07:19:24;95039.64;;;8.82;41.00
77366;BME280;66430;50.182;11.704;2024-02-21T07:21:50;95039.20;;;8.25;41.62
77366;BME280;66430;50.182;11.704;2024-02-21T07:24:16;95038.51;;;8.77;40.88
77366;BME280;66430;50.182;11.704;2024-02-21T07:26:41;95034.70;;;8.82;40.45
77366;BME280;66430;50.182;11.704;2024-02-21T07:29:06;95037.99;;;8.92;40.57
77366;BME280;66430;50.182;11.704;2024-02-21T07:33:57;95037.84;;;8.97;40.21
77366;BME280;66430;50.182;11.704;2024-02-21T07:36:29;95039.84;;;9.03;40.24
77366;BME280;66430;50.182;11.704;2024-02-21T07:38:48;95035.81;;;9.25;40.30
77366;BME280;66430;50.182;11.704;2024-02-21T07:41:16;95030.90;;;8.63;40.82
77366;BME280;66430;50.182;11.704;2024-02-21T07:43:39;95030.17;;;9.09;40.15
77366;BME280;66430;50.182;11.704;2024-02-21T07:46:06;95033.51;;;8.78;40.33
77366;BME280;66430;50.182;11.704;2024-02-21T07:48:32;95039.17;;;9.23;39.84
77366;BME280;66430;50.182;11.704;2024-02-21T07:50:56;95030.69;;;8.88;40.27
77366;BME280;66430;50.182;11.704;2024-02-21T07:53:21;95027.85;;;9.02;40.02
77366;BME280;66430;50.182;11.704;2024-02-21T07:55:47;95019.30;;;9.03;39.88
77366;BME280;66430;50.182;11.704;2024-02-21T07:58:13;95014.05;;;8.71;40.17
77366;BME280;66430;50.182;11.704;2024-02-21T08:00:36;95008.40;;;8.59;39.98
77366;BME280;66430;50.182;11.704;2024-02-21T08:03:03;95011.40;;;9.08;39.97
77366;BME280;66430;50.182;11.704;2024-02-21T08:05:28;95006.04;;;8.79;40.25
77366;BME280;66430;50.182;11.704;2024-02-21T08:07:54;95009.04;;;9.25;40.00
77366;BME280;66430;50.182;11.704;2024-02-21T08:10:18;95001.33;;;9.25;39.77
77366;BME280;66430;50.182;11.704;2024-02-21T08:12:44;94996.18;;;9.45;39.67
77366;BME280;66430;50.182;11.704;2024-02-21T08:15:09;94993.63;;;9.42;39.67
77366;BME280;66430;50.182;11.704;2024-02-21T08:17:35;94987.27;;;9.19;40.27
77366;BME280;66430;50.182;11.704;2024-02-21T08:20:01;94990.11;;;9.46;40.53
77366;BME280;66430;50.182;11.704;2024-02-21T08:22:26;94998.41;;;9.37;40.46
77366;BME280;66430;50.182;11.704;2024-02-21T08:24:53;94996.78;;;9.58;39.92
77366;BME280;66430;50.182;11.704;2024-02-21T08:27:18;94995.14;;;10.09;39.95
77366;BME280;66430;50.182;11.704;2024-02-21T08:29:43;94994.27;;;9.83;40.53
77366;BME280;66430;50.182;11.704;2024-02-21T08:32:08;94998.30;;;9.85;40.27
77366;BME280;66430;50.182;11.704;2024-02-21T08:34:34;94998.18;;;9.79;40.41
77366;BME280;66430;50.182;11.704;2024-02-21T08:37:00;95000.47;;;9.16;40.21
77366;BME280;66430;50.182;11.704;2024-02-21T08:39:25;94998.37;;;9.49;40.13
77366;BME280;66430;50.182;11.704;2024-02-21T08:41:50;94997.40;;;9.51;39.87
77366;BME280;66430;50.182;11.704;2024-02-21T08:44:15;95000.71;;;9.85;39.14
77366;BME280;66430;50.182;11.704;2024-02-21T08:46:41;94996.46;;;9.23;39.51
77366;BME280;66430;50.182;11.704;2024-02-21T08:49:06;94998.44;;;9.28;39.90
77366;BME280;66430;50.182;11.704;2024-02-21T08:51:32;94998.87;;;9.37;39.63
77366;BME280;66430;50.182;11.704;2024-02-21T08:53:58;94990.39;;;9.51;39.25
77366;BME280;66430;50.182;11.704;2024-02-21T08:56:22;94985.95;;;9.33;39.62
77366;BME280;66430;50.182;11.704;2024-02-21T08:58:48;94982.00;;;9.78;39.25
77366;BME280;66430;50.182;11.704;2024-02-21T09:01:14;94977.90;;;9.51;39.47
77366;BME280;66430;50.182;11.704;2024-02-21T09:03:39;94972.37;;;9.74;39.39
77366;BME280;66430;50.182;11.704;2024-02-21T09:06:05;94972.85;;;9.58;39.58
77366;BME280;66430;50.182;11.704;2024-02-21T09:08:30;94970.43;;;10.18;39.01
77366;BME280;66430;50.182;11.704;2024-02-21T09:10:55;94968.40;;;9.72;39.19
77366;BME280;66430;50.182;11.704;2024-02-21T09:13:20;94972.96;;;9.67;38.87
77366;BME280;66430;50.182;11.704;2024-02-21T09:15:47;94972.55;;;9.48;39.17
77366;BME280;66430;50.182;11.704;2024-02-21T09:18:11;94962.21;;;10.02;38.51
77366;BME280;66430;50.182;11.704;2024-02-21T09:20:37;94964.83;;;10.15;38.49
77366;BME280;66430;50.182;11.704;2024-02-21T09:23:07;94954.82;;;9.90;38.03
77366;BME280;66430;50.182;11.704;2024-02-21T09:25:28;94957.65;;;9.58;38.42
77366;BME280;66430;50.182;11.704;2024-02-21T09:27:54;94961.45;;;9.60;38.30
77366;BME280;66430;50.182;11.704;2024-02-21T09:30:19;94963.51;;;9.90;37.77
77366;BME280;66430;50.182;11.704;2024-02-21T09:32:44;94962.24;;;9.59;38.34
77366;BME280;66430;50.182;11.704;2024-02-21T09:35:10;94968.09;;;9.57;38.66
77366;BME280;66430;50.182;11.704;2024-02-21T09:37:35;94973.18;;;9.68;38.32
77366;BME280;66430;50.182;11.704;2024-02-21T09:40:00;94967.48;;;9.46;38.36
77366;BME280;66430;50.182;11.704;2024-02-21T09:42:36;94968.48;;;9.92;37.80
77366;BME280;66430;50.182;11.704;2024-02-21T09:44:52;94966.76;;;9.86;38.54
77366;BME280;66430;50.182;11.704;2024-02-21T09:47:22;94969.11;;;9.45;38.90
77366;BME280;66430;50.182;11.704;2024-02-21T09:49:42;94962.44;;;10.56;38.38
77366;BME280;66430;50.182;11.704;2024-02-21T09:52:07;94958.94;;;10.54;38.52
77366;BME280;66430;50.182;11.704;2024-02-21T09:54:33;94955.87;;;10.55;37.89
77366;BME280;66430;50.182;11.704;2024-02-21T09:56:59;94958.56;;;10.33;37.80
77366;BME280;66430;50.182;11.704;2024-02-21T09:59:25;94956.60;;;10.03;37.57
77366;BME280;66430;50.182;11.704;2024-02-21T10:01:50;94962.59;;;10.41;37.60
77366;BME280;66430;50.182;11.704;2024-02-21T10:04:15;94955.04;;;10.89;38.02
77366;BME280;66430;50.182;11.704;2024-02-21T10:06:40;94951.97;;;10.32;37.57
77366;BME280;66430;50.182;11.704;2024-02-21T10:09:06;94956.18;;;10.15;37.24
77366;BME280;66430;50.182;11.704;2024-02-21T10:11:31;94942.96;;;10.76;37.12
77366;BME280;66430;50.182;11.704;2024-02-21T10:14:04;94937.25;;;10.99;37.20
77366;BME280;66430;50.182;11.704;2024-02-21T10:16:21;94933.55;;;10.75;37.33
77366;BME280;66430;50.182;11.704;2024-02-21T10:18:47;94933.19;;;10.73;37.16
77366;BME280;66430;50.182;11.704;2024-02-21T10:21:13;94935.57;;;10.73;38.01
77366;BME280;66430;50.182;11.704;2024-02-21T10:23:44;94936.02;;;10.61;38.44
77366;BME280;66430;50.182;11.704;2024-02-21T10:26:05;94927.51;;;10.97;38.87
77366;BME280;66430;50.182;11.704;2024-02-21T10:28:28;94925.01;;;10.90;37.58
77366;BME280;66430;50.182;11.704;2024-02-21T10:30:53;94924.78;;;11.43;36.71
77366;BME280;66430;50.182;11.704;2024-02-21T10:33:19;94925.28;;;10.91;36.14
77366;BME280;66430;50.182;11.704;2024-02-21T10:35:45;94930.95;;;11.22;36.00
77366;BME280;66430;50.182;11.704;2024-02-21T10:38:10;94926.52;;;10.98;36.17
77366;BME280;66430;50.182;11.704;2024-02-21T10:40:36;94925.39;;;11.21;35.91
77366;BME280;66430;50.182;11.704;2024-02-21T10:43:01;94925.19;;;11.22;35.66
77366;BME280;66430;50.182;11.704;2024-02-21T10:45:30;94923.47;;;11.15;35.38
77366;BME280;66430;50.182;11.704;2024-02-21T10:47:55;94920.79;;;11.15;35.66
77366;BME280;66430;50.182;11.704;2024-02-21T10:50:18;94920.18;;;11.14;35.38
77366;BME280;66430;50.182;11.704;2024-02-21T10:52:51;94916.91;;;11.25;35.17
77366;BME280;66430;50.182;11.704;2024-02-21T10:55:11;94913.56;;;11.08;35.80
77366;BME280;66430;50.182;11.704;2024-02-21T10:57:34;94904.14;;;11.55;35.72
77366;BME280;66430;50.182;11.704;2024-02-21T10:59:59;94899.81;;;11.44;35.91
77366;BME280;66430;50.182;11.704;2024-02-21T11:02:25;94896.65;;;10.85;36.14
77366;BME280;66430;50.182;11.704;2024-02-21T11:04:50;94890.08;;;11.28;35.99
77366;BME280;66430;50.182;11.704;2024-02-21T11:07:16;94888.24;;;11.07;36.35
77366;BME280;66430;50.182;11.704;2024-02-21T11:09:50;94879.40;;;11.35;36.38
77366;BME280;66430;50.182;11.704;2024-02-21T11:12:07;94874.71;;;11.37;36.22
77366;BME280;66430;50.182;11.704;2024-02-21T11:14:31;94871.64;;;11.01;36.43
77366;BME280;66430;50.182;11.704;2024-02-21T11:16:56;94874.60;;;10.86;36.98
77366;BME280;66430;50.182;11.704;2024-02-21T11:19:23;94873.02;;;10.69;36.94
77366;BME280;66430;50.182;11.704;2024-02-21T11:21:47;94868.90;;;10.65;37.35
77366;BME280;66430;50.182;11.704;2024-02-21T11:24:12;94865.14;;;11.18;36.56
77366;BME280;66430;50.182;11.704;2024-02-21T11:26:39;94866.08;;;11.16;36.58
77366;BME280;66430;50.182;11.704;2024-02-21T11:29:03;94861.21;;;11.68;35.83
77366;BME280;66430;50.182;11.704;2024-02-21T11:31:39;94860.02;;;11.95;35.60
77366;BME280;66430;50.182;11.704;2024-02-21T11:33:53;94861.12;;;12.21;35.49
77366;BME280;66430;50.182;11.704;2024-02-21T11:36:24;94853.67;;;11.71;35.57
77366;BME280;66430;50.182;11.704;2024-02-21T11:38:44;94848.18;;;11.89;35.71
77366;BME280;66430;50.182;11.704;2024-02-21T11:41:10;94846.23;;;11.80;34.95
77366;BME280;66430;50.182;11.704;2024-02-21T11:43:35;94845.88;;;11.66;36.12
77366;BME280;66430;50.182;11.704;2024-02-21T11:46:01;94842.41;;;11.70;35.39
77366;BME280;66430;50.182;11.704;2024-02-21T11:48:26;94835.08;;;11.62;35.36
77366;BME280;66430;50.182;11.704;2024-02-21T11:50:55;94829.03;;;11.76;35.63
77366;BME280;66430;50.182;11.704;2024-02-21T11:53:18;94821.89;;;11.72;35.23
77366;BME280;66430;50.182;11.704;2024-02-21T11:55:42;94814.17;;;12.00;35.09
77366;BME280;66430;50.182;11.704;2024-02-21T11:58:08;94808.09;;;12.42;34.98
77366;BME280;66430;50.182;11.704;2024-02-21T12:00:33;94797.41;;;12.39;34.13
77366;BME280;66430;50.182;11.704;2024-02-21T12:02:59;94794.74;;;11.90;34.45
77366;BME280;66430;50.182;11.704;2024-02-21T12:05:26;94792.80;;;12.00;34.17
77366;BME280;66430;50.182;11.704;2024-02-21T12:07:50;94785.77;;;11.90;34.32
77366;BME280;66430;50.182;11.704;2024-02-21T12:10:15;94784.32;;;11.50;34.83
77366;BME280;66430;50.182;11.704;2024-02-21T12:12:40;94782.55;;;12.33;33.91
77366;BME280;66430;50.182;11.704;2024-02-21T12:15:07;94779.91;;;12.37;34.52
77366;BME280;66430;50.182;11.704;2024-02-21T12:17:32;94778.55;;;12.84;33.85
77366;BME280;66430;50.182;11.704;2024-02-21T12:19:57;94773.49;;;12.25;33.77
77366;BME280;66430;50.182;11.704;2024-02-21T12:22:22;94771.47;;;12.61;33.53
77366;BME280;66430;50.182;11.704;2024-02-21T12:24:48;94770.30;;;12.34;33.58
77366;BME280;66430;50.182;11.704;2024-02-21T12:27:13;94770.76;;;12.32;33.55
77366;BME280;66430;50.182;11.704;2024-02-21T12:29:38;94768.32;;;12.71;32.91
77366;BME280;66430;50.182;11.704;2024-02-21T12:32:03;94764.05;;;12.10;33.34
77366;BME280;66430;50.182;11.704;2024-02-21T12:34:32;94758.84;;;12.66;33.13
77366;BME280;66430;50.182;11.704;2024-02-21T12:36:54;94742.29;;;11.98;33.68
77366;BME280;66430;50.182;11.704;2024-02-21T12:39:19;94748.23;;;12.49;32.65
77366;BME280;66430;50.182;11.704;2024-02-21T12:41:46;94739.44;;;12.34;32.81
77366;BME280;66430;50.182;11.704;2024-02-21T12:44:10;94736.72;;;12.50;33.18
77366;BME280;66430;50.182;11.704;2024-02-21T12:46:35;94733.62;;;12.41;33.24
77366;BME280;66430;50.182;11.704;2024-02-21T12:49:01;94730.85;;;12.36;32.65